sensor_id;sensor_type;location;lat;lon;timestamp;P1;durP1;ratioP1;P2;durP2;ratioP2
74363;SDS011;62797;49.740;10.154;2024-03-23T00:53:02;24.65;;;11.88;;
74363;SDS011;62797;49.740;10.154;2024-03-23T00:55:35;25.17;;;13.65;;
74363;SDS011;62797;49.740;10.154;2024-03-23T00:58:14;26.48;;;13.48;;
74363;SDS011;62797;49.740;10.154;2024-03-23T01:00:46;25.02;;;12.82;;
74363;SDS011;62797;49.740;10.154;2024-03-23T01:03:18;23.80;;;12.63;;
74363;SDS011;62797;49.740;10.154;2024-03-23T01:05:50;25.88;;;12.18;;
74363;SDS011;62797;49.740;10.154;2024-03-23T01:08:22;19.65;;;10.82;;
74363;SDS011;62797;49.740;10.154;2024-03-23T01:10:57;26.00;;;12.43;;
74363;SDS011;62797;49.740;10.154;2024-03-23T01:13:31;23.83;;;11.77;;
74363;SDS011;62797;49.740;10.154;2024-03-23T01:16:03;23.88;;;11.52;;
74363;SDS011;62797;49.740;10.154;2024-03-23T01:18:35;19.85;;;11.23;;
74363;SDS011;62797;49.740;10.154;2024-03-23T01:21:07;24.33;;;12.35;;
74363;SDS011;62797;49.740;10.154;2024-03-23T01:23:39;21.80;;;12.65;;
74363;SDS011;62797;49.740;10.154;2024-03-23T01:26:11;19.40;;;11.32;;
74363;SDS011;62797;49.740;10.154;2024-03-23T01:28:43;24.23;;;13.05;;
74363;SDS011;62797;49.740;10.154;2024-03-23T01:31:15;29.20;;;11.80;;
74363;SDS011;62797;49.740;10.154;2024-03-23T01:33:47;33.65;;;12.95;;
74363;SDS011;62797;49.740;10.154;2024-03-23T01:36:19;20.80;;;11.88;;
74363;SDS011;62797;49.740;10.154;2024-03-23T01:38:51;17.60;;;12.27;;
74363;SDS011;62797;49.740;10.154;2024-03-23T01:41:24;23.55;;;10.82;;
74363;SDS011;62797;49.740;10.154;2024-03-23T01:43:56;23.10;;;12.82;;
74363;SDS011;62797;49.740;10.154;2024-03-23T01:46:28;20.08;;;11.98;;
74363;SDS011;62797;49.740;10.154;2024-03-23T01:49:00;20.67;;;10.25;;
74363;SDS011;62797;49.740;10.154;2024-03-23T01:51:32;20.58;;;11.45;;
74363;SDS011;62797;49.740;10.154;2024-03-23T01:54:05;18.67;;;10.50;;
74363;SDS011;62797;49.740;10.154;2024-03-23T01:56:38;20.30;;;11.80;;
74363;SDS011;62797;49.740;10.154;2024-03-23T01:59:10;20.98;;;11.60;;
74363;SDS011;62797;49.740;10.154;2024-03-23T02:01:42;22.58;;;10.98;;
74363;SDS011;62797;49.740;10.154;2024-03-23T02:04:14;18.98;;;9.82;;
74363;SDS011;62797;49.740;10.154;2024-03-23T02:06:46;17.92;;;10.82;;
74363;SDS011;62797;49.740;10.154;2024-03-23T02:09:18;18.30;;;9.02;;
74363;SDS011;62797;49.740;10.154;2024-03-23T02:11:50;17.77;;;11.50;;
74363;SDS011;62797;49.740;10.154;2024-03-23T02:14:22;16.02;;;10.45;;
74363;SDS011;62797;49.740;10.154;2024-03-23T02:16:54;18.75;;;11.18;;
74363;SDS011;62797;49.740;10.154;2024-03-23T02:19:26;19.00;;;10.57;;
74363;SDS011;62797;49.740;10.154;2024-03-23T02:21:58;18.50;;;12.13;;
74363;SDS011;62797;49.740;10.154;2024-03-23T02:24:30;17.95;;;10.98;;
74363;SDS011;62797;49.740;10.154;2024-03-23T02:27:02;28.00;;;12.85;;
74363;SDS011;62797;49.740;10.154;2024-03-23T02:29:34;17.33;;;11.90;;
74363;SDS011;62797;49.740;10.154;2024-03-23T02:32:06;20.42;;;12.40;;
74363;SDS011;62797;49.740;10.154;2024-03-23T02:34:40;20.27;;;13.35;;
74363;SDS011;62797;49.740;10.154;2024-03-23T02:37:12;20.70;;;12.75;;
74363;SDS011;62797;49.740;10.154;2024-03-23T02:39:44;18.90;;;10.77;;
74363;SDS011;62797;49.740;10.154;2024-03-23T02:42:16;18.92;;;11.30;;
74363;SDS011;62797;49.740;10.154;2024-03-23T02:44:49;19.30;;;10.23;;
74363;SDS011;62797;49.740;10.154;2024-03-23T02:47:21;23.77;;;11.65;;
74363;SDS011;62797;49.740;10.154;2024-03-23T02:50:00;20.50;;;11.13;;
74363;SDS011;62797;49.740;10.154;2024-03-23T02:52:32;19.27;;;12.07;;
74363;SDS011;62797;49.740;10.154;2024-03-23T02:55:04;21.27;;;10.48;;
74363;SDS011;62797;49.740;10.154;2024-03-23T02:57:36;20.35;;;12.20;;
74363;SDS011;62797;49.740;10.154;2024-03-23T03:00:08;16.83;;;10.27;;
74363;SDS011;62797;49.740;10.154;2024-03-23T03:02:42;22.88;;;11.27;;
74363;SDS011;62797;49.740;10.154;2024-03-23T03:05:14;19.80;;;11.65;;
74363;SDS011;62797;49.740;10.154;2024-03-23T03:07:46;22.20;;;12.27;;
74363;SDS011;62797;49.740;10.154;2024-03-23T03:10:18;18.98;;;11.23;;
74363;SDS011;62797;49.740;10.154;2024-03-23T03:12:50;27.05;;;10.43;;
74363;SDS011;62797;49.740;10.154;2024-03-23T03:15:22;23.13;;;10.93;;
74363;SDS011;62797;49.740;10.154;2024-03-23T03:17:54;19.38;;;11.70;;
74363;SDS011;62797;49.740;10.154;2024-03-23T03:20:26;23.38;;;12.93;;
74363;SDS011;62797;49.740;10.154;2024-03-23T03:22:58;22.55;;;12.23;;
74363;SDS011;62797;49.740;10.154;2024-03-23T03:25:30;23.63;;;11.73;;
74363;SDS011;62797;49.740;10.154;2024-03-23T03:28:02;20.35;;;11.40;;
74363;SDS011;62797;49.740;10.154;2024-03-23T03:30:35;27.65;;;13.80;;
74363;SDS011;62797;49.740;10.154;2024-03-23T03:33:07;26.27;;;12.57;;
74363;SDS011;62797;49.740;10.154;2024-03-23T03:35:39;21.40;;;11.55;;
74363;SDS011;62797;49.740;10.154;2024-03-23T03:38:11;21.98;;;12.23;;
74363;SDS011;62797;49.740;10.154;2024-03-23T03:40:43;21.13;;;13.10;;
74363;SDS011;62797;49.740;10.154;2024-03-23T03:43:15;25.10;;;13.38;;
74363;SDS011;62797;49.740;10.154;2024-03-23T03:45:54;36.10;;;14.10;;
74363;SDS011;62797;49.740;10.154;2024-03-23T03:48:26;20.50;;;12.00;;
74363;SDS011;62797;49.740;10.154;2024-03-23T03:50:58;23.27;;;12.55;;
74363;SDS011;62797;49.740;10.154;2024-03-23T03:53:37;25.67;;;12.15;;
74363;SDS011;62797;49.740;10.154;2024-03-23T03:56:09;23.95;;;14.82;;
74363;SDS011;62797;49.740;10.154;2024-03-23T03:58:41;27.23;;;12.65;;
74363;SDS011;62797;49.740;10.154;2024-03-23T04:01:13;26.17;;;13.52;;
74363;SDS011;62797;49.740;10.154;2024-03-23T04:03:46;19.67;;;11.18;;
74363;SDS011;62797;49.740;10.154;2024-03-23T04:06:18;20.80;;;12.18;;
74363;SDS011;62797;49.740;10.154;2024-03-23T04:08:51;21.75;;;12.50;;
74363;SDS011;62797;49.740;10.154;2024-03-23T04:11:23;21.17;;;12.35;;
74363;SDS011;62797;49.740;10.154;2024-03-23T04:13:55;23.13;;;12.30;;
74363;SDS011;62797;49.740;10.154;2024-03-23T04:16:27;19.55;;;12.25;;
74363;SDS011;62797;49.740;10.154;2024-03-23T04:19:00;16.38;;;10.38;;
74363;SDS011;62797;49.740;10.154;2024-03-23T04:21:32;16.70;;;10.32;;
74363;SDS011;62797;49.740;10.154;2024-03-23T04:24:04;21.35;;;13.07;;
74363;SDS011;62797;49.740;10.154;2024-03-23T04:26:42;18.52;;;11.57;;
74363;SDS011;62797;49.740;10.154;2024-03-23T04:29:15;17.25;;;11.20;;
74363;SDS011;62797;49.740;10.154;2024-03-23T04:31:47;25.60;;;12.35;;
74363;SDS011;62797;49.740;10.154;2024-03-23T04:34:19;19.80;;;11.77;;
74363;SDS011;62797;49.740;10.154;2024-03-23T04:36:51;18.98;;;11.15;;
74363;SDS011;62797;49.740;10.154;2024-03-23T04:39:23;20.48;;;12.15;;
74363;SDS011;62797;49.740;10.154;2024-03-23T04:41:55;18.17;;;11.35;;
74363;SDS011;62797;49.740;10.154;2024-03-23T04:44:27;19.83;;;11.73;;
74363;SDS011;62797;49.740;10.154;2024-03-23T04:47:00;20.15;;;11.35;;
74363;SDS011;62797;49.740;10.154;2024-03-23T04:49:39;25.67;;;11.68;;
74363;SDS011;62797;49.740;10.154;2024-03-23T04:52:11;17.25;;;11.00;;
74363;SDS011;62797;49.740;10.154;2024-03-23T04:54:44;20.85;;;11.45;;
74363;SDS011;62797;49.740;10.154;2024-03-23T04:57:20;20.20;;;10.63;;
74363;SDS011;62797;49.740;10.154;2024-03-23T04:59:54;16.15;;;9.70;;
74363;SDS011;62797;49.740;10.154;2024-03-23T05:02:27;16.25;;;9.32;;
74363;SDS011;62797;49.740;10.154;2024-03-23T05:04:59;21.88;;;10.50;;
74363;SDS011;62797;49.740;10.154;2024-03-23T05:07:31;17.25;;;9.30;;
74363;SDS011;62797;49.740;10.154;2024-03-23T05:10:03;15.13;;;10.40;;
74363;SDS011;62797;49.740;10.154;2024-03-23T05:12:36;13.90;;;9.15;;
74363;SDS011;62797;49.740;10.154;2024-03-23T05:15:09;19.38;;;9.43;;
74363;SDS011;62797;49.740;10.154;2024-03-23T05:17:41;17.23;;;9.52;;
74363;SDS011;62797;49.740;10.154;2024-03-23T05:20:13;16.70;;;11.20;;
74363;SDS011;62797;49.740;10.154;2024-03-23T05:22:45;15.50;;;8.77;;
74363;SDS011;62797;49.740;10.154;2024-03-23T05:25:18;17.88;;;9.20;;
74363;SDS011;62797;49.740;10.154;2024-03-23T05:27:50;19.42;;;10.60;;
74363;SDS011;62797;49.740;10.154;2024-03-23T05:30:22;22.25;;;10.20;;
74363;SDS011;62797;49.740;10.154;2024-03-23T05:32:55;18.90;;;10.75;;
74363;SDS011;62797;49.740;10.154;2024-03-23T05:35:27;20.90;;;10.25;;
74363;SDS011;62797;49.740;10.154;2024-03-23T05:37:59;22.95;;;11.73;;
74363;SDS011;62797;49.740;10.154;2024-03-23T05:40:31;25.67;;;12.75;;
74363;SDS011;62797;49.740;10.154;2024-03-23T05:43:03;15.75;;;9.27;;
74363;SDS011;62797;49.740;10.154;2024-03-23T05:45:35;18.40;;;11.23;;
74363;SDS011;62797;49.740;10.154;2024-03-23T05:48:07;17.75;;;11.02;;
74363;SDS011;62797;49.740;10.154;2024-03-23T05:50:39;20.10;;;12.50;;
74363;SDS011;62797;49.740;10.154;2024-03-23T05:53:20;19.30;;;10.13;;
74363;SDS011;62797;49.740;10.154;2024-03-23T05:55:59;29.05;;;13.43;;
74363;SDS011;62797;49.740;10.154;2024-03-23T05:58:35;20.67;;;12.95;;
74363;SDS011;62797;49.740;10.154;2024-03-23T06:01:07;21.83;;;10.75;;
74363;SDS011;62797;49.740;10.154;2024-03-23T06:03:39;21.55;;;12.15;;
74363;SDS011;62797;49.740;10.154;2024-03-23T06:06:11;23.10;;;11.38;;
74363;SDS011;62797;49.740;10.154;2024-03-23T06:08:46;20.00;;;10.63;;
74363;SDS011;62797;49.740;10.154;2024-03-23T06:11:19;20.25;;;11.75;;
74363;SDS011;62797;49.740;10.154;2024-03-23T06:13:51;30.05;;;13.60;;
74363;SDS011;62797;49.740;10.154;2024-03-23T06:16:23;26.05;;;12.63;;
74363;SDS011;62797;49.740;10.154;2024-03-23T06:18:56;20.80;;;12.18;;
74363;SDS011;62797;49.740;10.154;2024-03-23T06:21:28;24.10;;;12.35;;
74363;SDS011;62797;49.740;10.154;2024-03-23T06:24:00;24.35;;;13.32;;
74363;SDS011;62797;49.740;10.154;2024-03-23T06:26:32;20.73;;;10.65;;
74363;SDS011;62797;49.740;10.154;2024-03-23T06:29:04;19.20;;;9.80;;
74363;SDS011;62797;49.740;10.154;2024-03-23T06:31:36;17.60;;;7.80;;
74363;SDS011;62797;49.740;10.154;2024-03-23T06:34:08;19.60;;;7.05;;
74363;SDS011;62797;49.740;10.154;2024-03-23T06:36:40;11.35;;;6.25;;
74363;SDS011;62797;49.740;10.154;2024-03-23T06:39:12;11.23;;;6.55;;
74363;SDS011;62797;49.740;10.154;2024-03-23T06:41:51;13.13;;;7.07;;
74363;SDS011;62797;49.740;10.154;2024-03-23T06:44:24;11.20;;;6.22;;
74363;SDS011;62797;49.740;10.154;2024-03-23T06:49:55;16.08;;;8.50;;
74363;SDS011;62797;49.740;10.154;2024-03-23T06:52:27;14.25;;;6.43;;
74363;SDS011;62797;49.740;10.154;2024-03-23T06:55:00;12.82;;;7.22;;
74363;SDS011;62797;49.740;10.154;2024-03-23T06:57:32;9.98;;;6.05;;
74363;SDS011;62797;49.740;10.154;2024-03-23T07:00:04;11.77;;;6.55;;
74363;SDS011;62797;49.740;10.154;2024-03-23T07:02:41;10.38;;;5.50;;
74363;SDS011;62797;49.740;10.154;2024-03-23T07:05:13;11.43;;;4.70;;
74363;SDS011;62797;49.740;10.154;2024-03-23T07:07:46;11.27;;;5.32;;
74363;SDS011;62797;49.740;10.154;2024-03-23T07:10:20;9.02;;;5.75;;
74363;SDS011;62797;49.740;10.154;2024-03-23T07:12:52;13.75;;;6.45;;
74363;SDS011;62797;49.740;10.154;2024-03-23T07:15:24;7.45;;;4.70;;
74363;SDS011;62797;49.740;10.154;2024-03-23T07:17:56;7.28;;;5.00;;
74363;SDS011;62797;49.740;10.154;2024-03-23T07:20:28;9.25;;;5.00;;
74363;SDS011;62797;49.740;10.154;2024-03-23T07:23:02;7.68;;;4.72;;
74363;SDS011;62797;49.740;10.154;2024-03-23T07:25:34;16.67;;;4.07;;
74363;SDS011;62797;49.740;10.154;2024-03-23T07:28:06;6.57;;;4.28;;
74363;SDS011;62797;49.740;10.154;2024-03-23T07:30:38;4.53;;;2.90;;
74363;SDS011;62797;49.740;10.154;2024-03-23T07:33:10;6.80;;;3.55;;
74363;SDS011;62797;49.740;10.154;2024-03-23T07:35:42;7.82;;;2.60;;
74363;SDS011;62797;49.740;10.154;2024-03-23T07:38:14;3.92;;;2.53;;
74363;SDS011;62797;49.740;10.154;2024-03-23T07:40:46;6.05;;;2.63;;
74363;SDS011;62797;49.740;10.154;2024-03-23T07:43:18;3.70;;;2.30;;
74363;SDS011;62797;49.740;10.154;2024-03-23T07:45:53;3.55;;;1.88;;
74363;SDS011;62797;49.740;10.154;2024-03-23T07:48:26;3.38;;;1.83;;
74363;SDS011;62797;49.740;10.154;2024-03-23T07:51:09;2.55;;;1.70;;
74363;SDS011;62797;49.740;10.154;2024-03-23T07:53:43;2.10;;;1.27;;
74363;SDS011;62797;49.740;10.154;2024-03-23T07:56:20;4.18;;;1.95;;
74363;SDS011;62797;49.740;10.154;2024-03-23T07:58:53;8.55;;;1.80;;
74363;SDS011;62797;49.740;10.154;2024-03-23T08:01:25;4.70;;;1.40;;
74363;SDS011;62797;49.740;10.154;2024-03-23T08:03:57;4.75;;;1.85;;
74363;SDS011;62797;49.740;10.154;2024-03-23T08:06:29;1.48;;;0.90;;
74363;SDS011;62797;49.740;10.154;2024-03-23T08:09:01;1.17;;;1.00;;
74363;SDS011;62797;49.740;10.154;2024-03-23T08:11:34;1.15;;;0.70;;
74363;SDS011;62797;49.740;10.154;2024-03-23T08:14:06;2.13;;;0.90;;
74363;SDS011;62797;49.740;10.154;2024-03-23T08:16:38;1.95;;;0.80;;
74363;SDS011;62797;49.740;10.154;2024-03-23T08:19:10;1.73;;;1.25;;
74363;SDS011;62797;49.740;10.154;2024-03-23T08:21:42;7.13;;;3.55;;
74363;SDS011;62797;49.740;10.154;2024-03-23T08:24:14;10.93;;;3.88;;
74363;SDS011;62797;49.740;10.154;2024-03-23T08:26:46;0.60;;;0.60;;
74363;SDS011;62797;49.740;10.154;2024-03-23T08:29:18;1.73;;;0.70;;
74363;SDS011;62797;49.740;10.154;2024-03-23T08:31:50;1.13;;;1.02;;
74363;SDS011;62797;49.740;10.154;2024-03-23T08:34:22;0.93;;;0.90;;
74363;SDS011;62797;49.740;10.154;2024-03-23T08:36:54;4.18;;;2.58;;
74363;SDS011;62797;49.740;10.154;2024-03-23T08:39:26;6.35;;;3.65;;
74363;SDS011;62797;49.740;10.154;2024-03-23T08:41:58;6.88;;;3.28;;
74363;SDS011;62797;49.740;10.154;2024-03-23T08:44:30;3.30;;;1.60;;
74363;SDS011;62797;49.740;10.154;2024-03-23T08:50:12;0.65;;;0.63;;
74363;SDS011;62797;49.740;10.154;2024-03-23T08:52:53;0.40;;;0.40;;
74363;SDS011;62797;49.740;10.154;2024-03-23T08:55:25;0.30;;;0.30;;
74363;SDS011;62797;49.740;10.154;2024-03-23T08:57:57;1.35;;;0.90;;
74363;SDS011;62797;49.740;10.154;2024-03-23T09:00:30;0.30;;;0.30;;
74363;SDS011;62797;49.740;10.154;2024-03-23T09:03:02;3.03;;;0.50;;
74363;SDS011;62797;49.740;10.154;2024-03-23T09:05:39;0.93;;;0.70;;
74363;SDS011;62797;49.740;10.154;2024-03-23T09:08:13;1.75;;;0.93;;
74363;SDS011;62797;49.740;10.154;2024-03-23T09:10:47;1.02;;;0.50;;
74363;SDS011;62797;49.740;10.154;2024-03-23T09:13:19;1.60;;;0.90;;
74363;SDS011;62797;49.740;10.154;2024-03-23T09:15:51;2.78;;;1.20;;
74363;SDS011;62797;49.740;10.154;2024-03-23T09:18:31;4.15;;;1.02;;
74363;SDS011;62797;49.740;10.154;2024-03-23T09:21:11;1.83;;;1.20;;
74363;SDS011;62797;49.740;10.154;2024-03-23T09:23:44;1.73;;;1.08;;
74363;SDS011;62797;49.740;10.154;2024-03-23T09:26:16;4.20;;;1.10;;
74363;SDS011;62797;49.740;10.154;2024-03-23T09:28:55;3.05;;;1.20;;
74363;SDS011;62797;49.740;10.154;2024-03-23T09:31:27;3.47;;;1.55;;
74363;SDS011;62797;49.740;10.154;2024-03-23T09:33:59;2.42;;;1.17;;
74363;SDS011;62797;49.740;10.154;2024-03-23T09:36:31;2.72;;;1.52;;
74363;SDS011;62797;49.740;10.154;2024-03-23T09:39:03;2.78;;;1.42;;
74363;SDS011;62797;49.740;10.154;2024-03-23T09:41:37;7.43;;;1.52;;
74363;SDS011;62797;49.740;10.154;2024-03-23T09:44:09;2.85;;;0.93;;
74363;SDS011;62797;49.740;10.154;2024-03-23T09:46:41;2.85;;;1.20;;
74363;SDS011;62797;49.740;10.154;2024-03-23T09:49:13;6.60;;;1.05;;
74363;SDS011;62797;49.740;10.154;2024-03-23T09:51:45;4.18;;;1.83;;
74363;SDS011;62797;49.740;10.154;2024-03-23T09:54:26;6.13;;;1.85;;
74363;SDS011;62797;49.740;10.154;2024-03-23T09:56:58;10.90;;;2.15;;
74363;SDS011;62797;49.740;10.154;2024-03-23T09:59:30;6.72;;;2.78;;
74363;SDS011;62797;49.740;10.154;2024-03-23T10:02:04;7.20;;;3.20;;
74363;SDS011;62797;49.740;10.154;2024-03-23T10:04:42;7.53;;;2.67;;
74363;SDS011;62797;49.740;10.154;2024-03-23T10:07:19;6.80;;;2.45;;
74363;SDS011;62797;49.740;10.154;2024-03-23T10:09:54;6.72;;;2.22;;
74363;SDS011;62797;49.740;10.154;2024-03-23T10:12:26;6.63;;;2.58;;
74363;SDS011;62797;49.740;10.154;2024-03-23T10:14:58;10.00;;;3.00;;
74363;SDS011;62797;49.740;10.154;2024-03-23T10:17:39;5.70;;;2.05;;
74363;SDS011;62797;49.740;10.154;2024-03-23T10:20:11;6.68;;;2.03;;
74363;SDS011;62797;49.740;10.154;2024-03-23T10:22:50;9.90;;;2.45;;
74363;SDS011;62797;49.740;10.154;2024-03-23T10:25:25;6.18;;;2.45;;
74363;SDS011;62797;49.740;10.154;2024-03-23T10:27:58;4.05;;;2.42;;
74363;SDS011;62797;49.740;10.154;2024-03-23T10:30:32;6.70;;;2.15;;
74363;SDS011;62797;49.740;10.154;2024-03-23T10:33:08;6.50;;;2.05;;
74363;SDS011;62797;49.740;10.154;2024-03-23T10:35:40;8.32;;;3.05;;
74363;SDS011;62797;49.740;10.154;2024-03-23T10:38:12;7.65;;;2.58;;
74363;SDS011;62797;49.740;10.154;2024-03-23T10:40:51;4.75;;;2.42;;
74363;SDS011;62797;49.740;10.154;2024-03-23T10:43:24;8.60;;;3.90;;
74363;SDS011;62797;49.740;10.154;2024-03-23T10:46:03;9.02;;;2.20;;
74363;SDS011;62797;49.740;10.154;2024-03-23T10:52:09;4.78;;;2.53;;
74363;SDS011;62797;49.740;10.154;2024-03-23T10:54:48;4.57;;;2.00;;
74363;SDS011;62797;49.740;10.154;2024-03-23T10:57:30;9.45;;;2.70;;
74363;SDS011;62797;49.740;10.154;2024-03-23T11:00:12;5.57;;;2.70;;
74363;SDS011;62797;49.740;10.154;2024-03-23T11:02:48;5.03;;;2.53;;
74363;SDS011;62797;49.740;10.154;2024-03-23T11:07:59;5.97;;;2.58;;
74363;SDS011;62797;49.740;10.154;2024-03-23T11:10:31;9.40;;;3.25;;
74363;SDS011;62797;49.740;10.154;2024-03-23T11:13:21;11.45;;;3.50;;
74363;SDS011;62797;49.740;10.154;2024-03-23T11:15:53;5.68;;;3.03;;
74363;SDS011;62797;49.740;10.154;2024-03-23T11:18:25;6.32;;;3.17;;
74363;SDS011;62797;49.740;10.154;2024-03-23T11:20:57;12.73;;;4.18;;
74363;SDS011;62797;49.740;10.154;2024-03-23T11:23:29;8.70;;;3.67;;
74363;SDS011;62797;49.740;10.154;2024-03-23T11:26:01;15.95;;;3.88;;
74363;SDS011;62797;49.740;10.154;2024-03-23T11:28:34;13.48;;;3.65;;
74363;SDS011;62797;49.740;10.154;2024-03-23T11:31:09;9.93;;;3.72;;
74363;SDS011;62797;49.740;10.154;2024-03-23T11:33:42;9.57;;;4.13;;
74363;SDS011;62797;49.740;10.154;2024-03-23T11:36:18;6.50;;;2.63;;
74363;SDS011;62797;49.740;10.154;2024-03-23T11:41:23;10.15;;;3.42;;
74363;SDS011;62797;49.740;10.154;2024-03-23T11:43:56;12.95;;;2.80;;
74363;SDS011;62797;49.740;10.154;2024-03-23T11:46:28;8.05;;;2.45;;
74363;SDS011;62797;49.740;10.154;2024-03-23T11:49:00;9.00;;;2.55;;
74363;SDS011;62797;49.740;10.154;2024-03-23T11:51:34;6.68;;;3.05;;
74363;SDS011;62797;49.740;10.154;2024-03-23T11:54:13;12.00;;;2.72;;
74363;SDS011;62797;49.740;10.154;2024-03-23T11:56:55;7.43;;;2.88;;
74363;SDS011;62797;49.740;10.154;2024-03-23T11:59:31;7.65;;;3.40;;
74363;SDS011;62797;49.740;10.154;2024-03-23T12:02:12;10.35;;;3.80;;
74363;SDS011;62797;49.740;10.154;2024-03-23T12:04:47;5.85;;;2.72;;
74363;SDS011;62797;49.740;10.154;2024-03-23T12:07:19;15.40;;;2.75;;
74363;SDS011;62797;49.740;10.154;2024-03-23T12:10:03;5.40;;;2.85;;
74363;SDS011;62797;49.740;10.154;2024-03-23T12:12:36;8.52;;;2.72;;
74363;SDS011;62797;49.740;10.154;2024-03-23T12:15:08;10.82;;;3.97;;
74363;SDS011;62797;49.740;10.154;2024-03-23T12:17:40;13.65;;;3.47;;
74363;SDS011;62797;49.740;10.154;2024-03-23T12:20:12;8.57;;;2.40;;
74363;SDS011;62797;49.740;10.154;2024-03-23T12:22:45;4.97;;;2.28;;
74363;SDS011;62797;49.740;10.154;2024-03-23T12:25:18;7.47;;;2.85;;
74363;SDS011;62797;49.740;10.154;2024-03-23T12:27:50;9.88;;;2.58;;
74363;SDS011;62797;49.740;10.154;2024-03-23T12:30:22;6.18;;;2.40;;
74363;SDS011;62797;49.740;10.154;2024-03-23T12:32:54;9.63;;;2.70;;
74363;SDS011;62797;49.740;10.154;2024-03-23T12:35:26;13.07;;;2.65;;
74363;SDS011;62797;49.740;10.154;2024-03-23T12:37:58;37.58;;;4.55;;
74363;SDS011;62797;49.740;10.154;2024-03-23T12:40:30;8.32;;;3.13;;
74363;SDS011;62797;49.740;10.154;2024-03-23T12:43:02;8.23;;;2.35;;
74363;SDS011;62797;49.740;10.154;2024-03-23T12:45:34;19.70;;;2.97;;
74363;SDS011;62797;49.740;10.154;2024-03-23T12:50:57;9.77;;;2.33;;
74363;SDS011;62797;49.740;10.154;2024-03-23T12:53:29;7.43;;;1.98;;
74363;SDS011;62797;49.740;10.154;2024-03-23T12:56:01;10.13;;;2.65;;
74363;SDS011;62797;49.740;10.154;2024-03-23T12:58:34;8.18;;;2.35;;
74363;SDS011;62797;49.740;10.154;2024-03-23T13:01:06;9.02;;;2.75;;
74363;SDS011;62797;49.740;10.154;2024-03-23T13:03:38;8.35;;;3.58;;
74363;SDS011;62797;49.740;10.154;2024-03-23T13:06:12;11.15;;;5.82;;
74363;SDS011;62797;49.740;10.154;2024-03-23T13:08:44;13.27;;;3.70;;
74363;SDS011;62797;49.740;10.154;2024-03-23T13:11:17;12.18;;;3.70;;
74363;SDS011;62797;49.740;10.154;2024-03-23T13:13:49;12.48;;;3.88;;
74363;SDS011;62797;49.740;10.154;2024-03-23T13:16:22;16.40;;;4.47;;
74363;SDS011;62797;49.740;10.154;2024-03-23T13:18:54;11.25;;;3.22;;
74363;SDS011;62797;49.740;10.154;2024-03-23T13:21:26;8.35;;;3.25;;
74363;SDS011;62797;49.740;10.154;2024-03-23T13:23:58;12.07;;;5.10;;
74363;SDS011;62797;49.740;10.154;2024-03-23T13:26:30;7.20;;;2.33;;
74363;SDS011;62797;49.740;10.154;2024-03-23T13:29:02;8.10;;;2.90;;
74363;SDS011;62797;49.740;10.154;2024-03-23T13:31:34;10.55;;;3.08;;
74363;SDS011;62797;49.740;10.154;2024-03-23T13:34:06;4.03;;;2.70;;
74363;SDS011;62797;49.740;10.154;2024-03-23T13:36:38;7.18;;;2.05;;
74363;SDS011;62797;49.740;10.154;2024-03-23T13:39:11;5.78;;;2.78;;
74363;SDS011;62797;49.740;10.154;2024-03-23T13:41:44;7.75;;;2.85;;
74363;SDS011;62797;49.740;10.154;2024-03-23T13:44:17;11.45;;;3.53;;
74363;SDS011;62797;49.740;10.154;2024-03-23T13:46:49;31.55;;;2.85;;
74363;SDS011;62797;49.740;10.154;2024-03-23T13:49:25;9.73;;;3.75;;
74363;SDS011;62797;49.740;10.154;2024-03-23T13:52:00;7.13;;;3.08;;
74363;SDS011;62797;49.740;10.154;2024-03-23T13:54:32;9.10;;;2.65;;
74363;SDS011;62797;49.740;10.154;2024-03-23T13:57:16;5.80;;;2.42;;
74363;SDS011;62797;49.740;10.154;2024-03-23T13:59:48;7.45;;;2.53;;
74363;SDS011;62797;49.740;10.154;2024-03-23T14:02:20;9.25;;;2.83;;
74363;SDS011;62797;49.740;10.154;2024-03-23T14:04:52;14.23;;;3.17;;
74363;SDS011;62797;49.740;10.154;2024-03-23T14:07:24;7.97;;;3.05;;
74363;SDS011;62797;49.740;10.154;2024-03-23T14:09:56;7.80;;;2.08;;
74363;SDS011;62797;49.740;10.154;2024-03-23T14:12:33;8.00;;;2.33;;
74363;SDS011;62797;49.740;10.154;2024-03-23T14:15:05;10.05;;;2.17;;
74363;SDS011;62797;49.740;10.154;2024-03-23T14:17:38;8.52;;;2.50;;
74363;SDS011;62797;49.740;10.154;2024-03-23T14:20:13;8.55;;;2.58;;
74363;SDS011;62797;49.740;10.154;2024-03-23T14:22:45;10.00;;;2.50;;
74363;SDS011;62797;49.740;10.154;2024-03-23T14:25:17;21.55;;;2.22;;
74363;SDS011;62797;49.740;10.154;2024-03-23T14:30:45;7.72;;;1.92;;
74363;SDS011;62797;49.740;10.154;2024-03-23T14:33:17;8.50;;;2.28;;
74363;SDS011;62797;49.740;10.154;2024-03-23T14:35:53;29.67;;;4.68;;
74363;SDS011;62797;49.740;10.154;2024-03-23T14:38:28;6.63;;;2.25;;
74363;SDS011;62797;49.740;10.154;2024-03-23T14:41:00;5.15;;;2.05;;
74363;SDS011;62797;49.740;10.154;2024-03-23T14:43:34;7.00;;;2.53;;
74363;SDS011;62797;49.740;10.154;2024-03-23T14:46:09;6.05;;;2.38;;
74363;SDS011;62797;49.740;10.154;2024-03-23T14:51:37;9.90;;;2.40;;
74363;SDS011;62797;49.740;10.154;2024-03-23T14:54:16;12.00;;;2.65;;
74363;SDS011;62797;49.740;10.154;2024-03-23T14:56:48;7.70;;;1.48;;
74363;SDS011;62797;49.740;10.154;2024-03-23T14:59:20;5.40;;;1.27;;
74363;SDS011;62797;49.740;10.154;2024-03-23T15:01:52;18.15;;;3.30;;
74363;SDS011;62797;49.740;10.154;2024-03-23T15:04:24;9.18;;;1.80;;
74363;SDS011;62797;49.740;10.154;2024-03-23T15:06:56;4.88;;;1.80;;
74363;SDS011;62797;49.740;10.154;2024-03-23T15:09:28;6.80;;;1.55;;
74363;SDS011;62797;49.740;10.154;2024-03-23T15:12:00;7.65;;;2.20;;
74363;SDS011;62797;49.740;10.154;2024-03-23T15:14:32;7.60;;;1.75;;
74363;SDS011;62797;49.740;10.154;2024-03-23T15:17:06;7.10;;;1.77;;
74363;SDS011;62797;49.740;10.154;2024-03-23T15:19:40;6.28;;;1.52;;
74363;SDS011;62797;49.740;10.154;2024-03-23T15:22:14;4.55;;;1.20;;
74363;SDS011;62797;49.740;10.154;2024-03-23T15:24:46;3.85;;;1.48;;
74363;SDS011;62797;49.740;10.154;2024-03-23T15:27:18;5.22;;;1.42;;
74363;SDS011;62797;49.740;10.154;2024-03-23T15:29:50;4.95;;;1.80;;
74363;SDS011;62797;49.740;10.154;2024-03-23T15:32:22;2.70;;;1.00;;
74363;SDS011;62797;49.740;10.154;2024-03-23T15:34:54;7.78;;;1.40;;
74363;SDS011;62797;49.740;10.154;2024-03-23T15:37:26;4.32;;;1.90;;
74363;SDS011;62797;49.740;10.154;2024-03-23T15:39:58;12.98;;;2.53;;
74363;SDS011;62797;49.740;10.154;2024-03-23T15:42:30;6.97;;;2.38;;
74363;SDS011;62797;49.740;10.154;2024-03-23T15:45:02;3.35;;;1.95;;
74363;SDS011;62797;49.740;10.154;2024-03-23T15:47:38;5.28;;;1.45;;
74363;SDS011;62797;49.740;10.154;2024-03-23T15:50:10;6.32;;;1.70;;
74363;SDS011;62797;49.740;10.154;2024-03-23T15:52:42;6.68;;;2.30;;
74363;SDS011;62797;49.740;10.154;2024-03-23T15:55:14;5.65;;;2.03;;
74363;SDS011;62797;49.740;10.154;2024-03-23T15:57:53;2.85;;;1.33;;
74363;SDS011;62797;49.740;10.154;2024-03-23T16:00:25;5.68;;;2.20;;
74363;SDS011;62797;49.740;10.154;2024-03-23T16:02:57;5.32;;;1.15;;
74363;SDS011;62797;49.740;10.154;2024-03-23T16:05:29;3.47;;;1.65;;
74363;SDS011;62797;49.740;10.154;2024-03-23T16:08:01;5.07;;;1.23;;
74363;SDS011;62797;49.740;10.154;2024-03-23T16:10:33;6.75;;;1.50;;
74363;SDS011;62797;49.740;10.154;2024-03-23T16:13:06;2.47;;;1.23;;